sensor_id;sensor_type;location;lat;lon;timestamp;P1;durP1;ratioP1;P2;durP2;ratioP2
78752;SDS011;68072;51.688;7.842;2023-05-10T00:02:07;14.20;;;6.70;;
78752;SDS011;68072;51.688;7.842;2023-05-10T00:04:32;23.42;;;9.23;;
78752;SDS011;68072;51.688;7.842;2023-05-10T00:06:57;29.75;;;10.90;;
78752;SDS011;68072;51.688;7.842;2023-05-10T00:09:23;33.17;;;12.80;;
78752;SDS011;68072;51.688;7.842;2023-05-10T00:11:48;44.60;;;15.00;;
78752;SDS011;68072;51.688;7.842;2023-05-10T00:14:14;48.35;;;16.67;;
78752;SDS011;68072;51.688;7.842;2023-05-10T00:16:39;61.33;;;20.65;;
78752;SDS011;68072;51.688;7.842;2023-05-10T00:19:05;53.15;;;17.77;;
78752;SDS011;68072;51.688;7.842;2023-05-10T00:21:30;50.67;;;17.73;;
78752;SDS011;68072;51.688;7.842;2023-05-10T00:23:57;53.20;;;16.25;;
78752;SDS011;68072;51.688;7.842;2023-05-10T00:26:22;32.30;;;12.05;;
78752;SDS011;68072;51.688;7.842;2023-05-10T00:28:47;25.38;;;11.57;;
78752;SDS011;68072;51.688;7.842;2023-05-10T00:31:13;21.25;;;9.85;;
78752;SDS011;68072;51.688;7.842;2023-05-10T00:36:04;18.90;;;8.63;;
78752;SDS011;68072;51.688;7.842;2023-05-10T00:38:32;23.38;;;10.07;;
78752;SDS011;68072;51.688;7.842;2023-05-10T00:40:58;18.25;;;9.48;;
78752;SDS011;68072;51.688;7.842;2023-05-10T00:43:23;14.80;;;8.50;;
78752;SDS011;68072;51.688;7.842;2023-05-10T00:45:49;19.55;;;9.63;;
78752;SDS011;68072;51.688;7.842;2023-05-10T00:48:14;13.57;;;7.38;;
78752;SDS011;68072;51.688;7.842;2023-05-10T00:50:40;12.20;;;6.50;;
78752;SDS011;68072;51.688;7.842;2023-05-10T00:53:05;14.70;;;7.43;;
78752;SDS011;68072;51.688;7.842;2023-05-10T00:55:31;14.98;;;6.97;;
78752;SDS011;68072;51.688;7.842;2023-05-10T00:57:56;13.75;;;7.40;;
78752;SDS011;68072;51.688;7.842;2023-05-10T01:00:22;12.32;;;6.07;;
78752;SDS011;68072;51.688;7.842;2023-05-10T01:02:47;15.98;;;7.75;;
78752;SDS011;68072;51.688;7.842;2023-05-10T01:05:14;15.95;;;7.38;;
78752;SDS011;68072;51.688;7.842;2023-05-10T01:07:40;11.98;;;6.63;;
78752;SDS011;68072;51.688;7.842;2023-05-10T01:10:06;10.07;;;5.75;;
78752;SDS011;68072;51.688;7.842;2023-05-10T01:12:33;13.68;;;5.88;;
78752;SDS011;68072;51.688;7.842;2023-05-10T01:15:00;10.57;;;5.80;;
78752;SDS011;68072;51.688;7.842;2023-05-10T01:17:26;11.88;;;6.25;;
78752;SDS011;68072;51.688;7.842;2023-05-10T01:19:51;12.60;;;6.18;;
78752;SDS011;68072;51.688;7.842;2023-05-10T01:33:59;13.82;;;6.88;;
78752;SDS011;68072;51.688;7.842;2023-05-10T01:44:09;12.32;;;7.10;;
78752;SDS011;68072;51.688;7.842;2023-05-10T01:46:48;8.15;;;5.68;;
78752;SDS011;68072;51.688;7.842;2023-05-10T01:49:29;12.00;;;5.90;;
78752;SDS011;68072;51.688;7.842;2023-05-10T01:52:02;8.75;;;5.43;;
78752;SDS011;68072;51.688;7.842;2023-05-10T01:54:41;10.95;;;6.07;;
78752;SDS011;68072;51.688;7.842;2023-05-10T01:57:09;10.45;;;5.43;;
78752;SDS011;68072;51.688;7.842;2023-05-10T01:59:38;10.07;;;6.13;;
78752;SDS011;68072;51.688;7.842;2023-05-10T02:02:08;8.30;;;5.07;;
78752;SDS011;68072;51.688;7.842;2023-05-10T02:04:37;8.60;;;5.03;;
78752;SDS011;68072;51.688;7.842;2023-05-10T02:07:03;7.65;;;4.90;;
78752;SDS011;68072;51.688;7.842;2023-05-10T02:09:31;9.57;;;5.57;;
78752;SDS011;68072;51.688;7.842;2023-05-10T02:11:57;8.85;;;4.93;;
78752;SDS011;68072;51.688;7.842;2023-05-10T02:14:23;10.57;;;4.97;;
78752;SDS011;68072;51.688;7.842;2023-05-10T02:16:50;7.68;;;4.53;;
78752;SDS011;68072;51.688;7.842;2023-05-10T02:19:16;8.48;;;4.50;;
78752;SDS011;68072;51.688;7.842;2023-05-10T02:21:42;8.90;;;4.20;;
78752;SDS011;68072;51.688;7.842;2023-05-10T02:24:08;8.35;;;4.60;;
78752;SDS011;68072;51.688;7.842;2023-05-10T02:26:35;9.27;;;5.35;;
78752;SDS011;68072;51.688;7.842;2023-05-10T02:29:04;9.82;;;4.65;;
78752;SDS011;68072;51.688;7.842;2023-05-10T02:31:33;10.63;;;5.97;;
78752;SDS011;68072;51.688;7.842;2023-05-10T02:34:00;11.60;;;5.30;;
78752;SDS011;68072;51.688;7.842;2023-05-10T02:36:27;8.57;;;5.13;;
78752;SDS011;68072;51.688;7.842;2023-05-10T02:38:52;5.32;;;3.70;;
78752;SDS011;68072;51.688;7.842;2023-05-10T02:41:18;6.32;;;3.75;;
78752;SDS011;68072;51.688;7.842;2023-05-10T02:43:46;5.57;;;2.38;;
78752;SDS011;68072;51.688;7.842;2023-05-10T02:46:12;3.42;;;2.05;;
78752;SDS011;68072;51.688;7.842;2023-05-10T02:48:37;3.45;;;2.45;;
78752;SDS011;68072;51.688;7.842;2023-05-10T02:51:04;4.95;;;2.72;;
78752;SDS011;68072;51.688;7.842;2023-05-10T02:53:31;2.90;;;2.13;;
78752;SDS011;68072;51.688;7.842;2023-05-10T02:55:58;3.58;;;1.98;;
78752;SDS011;68072;51.688;7.842;2023-05-10T02:58:25;3.80;;;2.63;;
78752;SDS011;68072;51.688;7.842;2023-05-10T03:00:51;2.10;;;1.80;;
78752;SDS011;68072;51.688;7.842;2023-05-10T03:03:17;3.13;;;2.13;;
78752;SDS011;68072;51.688;7.842;2023-05-10T03:05:42;3.83;;;2.60;;
78752;SDS011;68072;51.688;7.842;2023-05-10T03:08:08;4.35;;;2.28;;
78752;SDS011;68072;51.688;7.842;2023-05-10T03:10:33;5.30;;;2.10;;
78752;SDS011;68072;51.688;7.842;2023-05-10T03:13:16;3.03;;;2.00;;
78752;SDS011;68072;51.688;7.842;2023-05-10T03:18:48;1.77;;;1.60;;
78752;SDS011;68072;51.688;7.842;2023-05-10T03:21:17;2.20;;;1.55;;
78752;SDS011;68072;51.688;7.842;2023-05-10T03:23:47;2.80;;;1.60;;
78752;SDS011;68072;51.688;7.842;2023-05-10T03:26:22;3.03;;;1.63;;
78752;SDS011;68072;51.688;7.842;2023-05-10T03:28:50;4.25;;;1.83;;
78752;SDS011;68072;51.688;7.842;2023-05-10T03:31:16;2.45;;;1.50;;
78752;SDS011;68072;51.688;7.842;2023-05-10T03:33:47;2.17;;;1.60;;
78752;SDS011;68072;51.688;7.842;2023-05-10T03:36:17;4.03;;;1.88;;
78752;SDS011;68072;51.688;7.842;2023-05-10T03:38:43;1.50;;;1.40;;
78752;SDS011;68072;51.688;7.842;2023-05-10T03:41:08;2.53;;;1.75;;
78752;SDS011;68072;51.688;7.842;2023-05-10T03:43:34;3.83;;;2.40;;
78752;SDS011;68072;51.688;7.842;2023-05-10T03:46:03;2.70;;;2.22;;
78752;SDS011;68072;51.688;7.842;2023-05-10T03:48:29;3.00;;;1.65;;
78752;SDS011;68072;51.688;7.842;2023-05-10T03:50:55;4.45;;;2.50;;
78752;SDS011;68072;51.688;7.842;2023-05-10T03:53:20;2.97;;;1.88;;
78752;SDS011;68072;51.688;7.842;2023-05-10T03:55:46;4.00;;;2.00;;
78752;SDS011;68072;51.688;7.842;2023-05-10T03:58:11;3.53;;;2.30;;
78752;SDS011;68072;51.688;7.842;2023-05-10T04:00:37;2.40;;;2.15;;
78752;SDS011;68072;51.688;7.842;2023-05-10T04:03:02;2.65;;;2.15;;
78752;SDS011;68072;51.688;7.842;2023-05-10T04:05:28;4.07;;;2.17;;
78752;SDS011;68072;51.688;7.842;2023-05-10T04:07:53;4.75;;;2.33;;
78752;SDS011;68072;51.688;7.842;2023-05-10T04:10:18;2.47;;;2.13;;
78752;SDS011;68072;51.688;7.842;2023-05-10T04:12:44;3.85;;;2.25;;
78752;SDS011;68072;51.688;7.842;2023-05-10T04:15:10;7.25;;;2.70;;
78752;SDS011;68072;51.688;7.842;2023-05-10T04:17:35;4.65;;;2.58;;
78752;SDS011;68072;51.688;7.842;2023-05-10T04:20:00;4.78;;;2.92;;
78752;SDS011;68072;51.688;7.842;2023-05-10T04:22:26;6.10;;;2.70;;
78752;SDS011;68072;51.688;7.842;2023-05-10T04:24:52;3.50;;;2.80;;
78752;SDS011;68072;51.688;7.842;2023-05-10T04:27:18;4.35;;;2.90;;
78752;SDS011;68072;51.688;7.842;2023-05-10T04:29:43;5.40;;;2.97;;
78752;SDS011;68072;51.688;7.842;2023-05-10T04:32:08;4.97;;;2.75;;
78752;SDS011;68072;51.688;7.842;2023-05-10T04:34:35;6.40;;;3.03;;
78752;SDS011;68072;51.688;7.842;2023-05-10T04:37:01;6.00;;;3.20;;
78752;SDS011;68072;51.688;7.842;2023-05-10T04:39:26;5.88;;;3.30;;
78752;SDS011;68072;51.688;7.842;2023-05-10T04:41:52;3.92;;;2.60;;
78752;SDS011;68072;51.688;7.842;2023-05-10T04:44:17;3.92;;;2.67;;
78752;SDS011;68072;51.688;7.842;2023-05-10T04:46:43;6.25;;;3.55;;
78752;SDS011;68072;51.688;7.842;2023-05-10T04:49:08;6.18;;;3.33;;
78752;SDS011;68072;51.688;7.842;2023-05-10T04:51:34;5.78;;;3.95;;
78752;SDS011;68072;51.688;7.842;2023-05-10T04:53:59;8.57;;;3.92;;
78752;SDS011;68072;51.688;7.842;2023-05-10T04:56:25;6.13;;;4.53;;
78752;SDS011;68072;51.688;7.842;2023-05-10T04:58:50;7.60;;;4.60;;
78752;SDS011;68072;51.688;7.842;2023-05-10T05:01:16;7.30;;;4.70;;
78752;SDS011;68072;51.688;7.842;2023-05-10T05:03:41;8.35;;;4.85;;
78752;SDS011;68072;51.688;7.842;2023-05-10T05:06:07;10.27;;;5.60;;
78752;SDS011;68072;51.688;7.842;2023-05-10T05:08:32;10.25;;;5.40;;
78752;SDS011;68072;51.688;7.842;2023-05-10T05:10:58;10.15;;;5.47;;
78752;SDS011;68072;51.688;7.842;2023-05-10T05:13:24;9.70;;;5.20;;
78752;SDS011;68072;51.688;7.842;2023-05-10T05:15:49;14.10;;;6.47;;
78752;SDS011;68072;51.688;7.842;2023-05-10T05:18:15;13.43;;;6.43;;
78752;SDS011;68072;51.688;7.842;2023-05-10T05:20:40;15.38;;;7.07;;
78752;SDS011;68072;51.688;7.842;2023-05-10T05:23:06;13.65;;;7.57;;
78752;SDS011;68072;51.688;7.842;2023-05-10T05:25:31;17.25;;;8.15;;
78752;SDS011;68072;51.688;7.842;2023-05-10T05:27:56;16.00;;;7.68;;
78752;SDS011;68072;51.688;7.842;2023-05-10T05:30:22;12.68;;;6.53;;
78752;SDS011;68072;51.688;7.842;2023-05-10T05:32:47;14.45;;;6.68;;
78752;SDS011;68072;51.688;7.842;2023-05-10T05:35:13;14.77;;;7.50;;
78752;SDS011;68072;51.688;7.842;2023-05-10T05:37:38;13.77;;;7.10;;
78752;SDS011;68072;51.688;7.842;2023-05-10T05:40:04;15.00;;;7.65;;
78752;SDS011;68072;51.688;7.842;2023-05-10T05:42:30;17.15;;;7.72;;
78752;SDS011;68072;51.688;7.842;2023-05-10T05:44:56;21.42;;;9.80;;
78752;SDS011;68072;51.688;7.842;2023-05-10T05:47:21;27.02;;;10.32;;
78752;SDS011;68072;51.688;7.842;2023-05-10T05:49:47;25.20;;;11.63;;
78752;SDS011;68072;51.688;7.842;2023-05-10T05:52:12;26.75;;;12.68;;
78752;SDS011;68072;51.688;7.842;2023-05-10T05:54:38;30.08;;;13.50;;
78752;SDS011;68072;51.688;7.842;2023-05-10T05:57:03;28.85;;;13.80;;
78752;SDS011;68072;51.688;7.842;2023-05-10T05:59:29;35.83;;;14.45;;
78752;SDS011;68072;51.688;7.842;2023-05-10T06:01:54;31.80;;;13.73;;
78752;SDS011;68072;51.688;7.842;2023-05-10T06:04:20;37.38;;;15.40;;
78752;SDS011;68072;51.688;7.842;2023-05-10T06:06:45;34.53;;;14.80;;
78752;SDS011;68072;51.688;7.842;2023-05-10T06:09:10;37.08;;;16.20;;
78752;SDS011;68072;51.688;7.842;2023-05-10T06:14:02;34.90;;;14.60;;
78752;SDS011;68072;51.688;7.842;2023-05-10T06:16:29;39.45;;;15.55;;
78752;SDS011;68072;51.688;7.842;2023-05-10T06:18:55;35.95;;;15.43;;
78752;SDS011;68072;51.688;7.842;2023-05-10T06:21:20;36.95;;;15.00;;
78752;SDS011;68072;51.688;7.842;2023-05-10T06:23:46;36.25;;;15.52;;
78752;SDS011;68072;51.688;7.842;2023-05-10T06:26:11;39.38;;;14.32;;
78752;SDS011;68072;51.688;7.842;2023-05-10T06:28:37;46.10;;;16.63;;
78752;SDS011;68072;51.688;7.842;2023-05-10T06:31:06;46.50;;;17.45;;
78752;SDS011;68072;51.688;7.842;2023-05-10T06:33:32;43.85;;;17.15;;
78752;SDS011;68072;51.688;7.842;2023-05-10T06:35:57;43.72;;;16.75;;
78752;SDS011;68072;51.688;7.842;2023-05-10T06:38:23;44.85;;;17.98;;
78752;SDS011;68072;51.688;7.842;2023-05-10T06:40:49;54.05;;;17.33;;
78752;SDS011;68072;51.688;7.842;2023-05-10T06:43:14;50.67;;;17.35;;
78752;SDS011;68072;51.688;7.842;2023-05-10T06:45:40;53.75;;;18.90;;
78752;SDS011;68072;51.688;7.842;2023-05-10T06:48:06;50.63;;;19.20;;
78752;SDS011;68072;51.688;7.842;2023-05-10T06:50:31;59.58;;;20.00;;
78752;SDS011;68072;51.688;7.842;2023-05-10T06:52:57;54.47;;;20.15;;
78752;SDS011;68072;51.688;7.842;2023-05-10T06:55:23;57.33;;;19.15;;
78752;SDS011;68072;51.688;7.842;2023-05-10T06:57:48;54.22;;;19.25;;
78752;SDS011;68072;51.688;7.842;2023-05-10T07:00:14;56.40;;;20.55;;
78752;SDS011;68072;51.688;7.842;2023-05-10T07:02:39;63.33;;;20.50;;
78752;SDS011;68072;51.688;7.842;2023-05-10T07:05:05;61.95;;;21.20;;
78752;SDS011;68072;51.688;7.842;2023-05-10T07:07:31;67.45;;;23.45;;
78752;SDS011;68072;51.688;7.842;2023-05-10T07:09:56;69.00;;;24.05;;
78752;SDS011;68072;51.688;7.842;2023-05-10T07:12:22;64.93;;;23.65;;
78752;SDS011;68072;51.688;7.842;2023-05-10T07:14:48;67.68;;;21.77;;
78752;SDS011;68072;51.688;7.842;2023-05-10T07:17:13;65.88;;;22.98;;
78752;SDS011;68072;51.688;7.842;2023-05-10T07:19:39;66.80;;;22.50;;
78752;SDS011;68072;51.688;7.842;2023-05-10T07:22:04;59.95;;;21.50;;
78752;SDS011;68072;51.688;7.842;2023-05-10T07:24:30;58.42;;;20.92;;
78752;SDS011;68072;51.688;7.842;2023-05-10T07:26:56;54.17;;;20.77;;
78752;SDS011;68072;51.688;7.842;2023-05-10T07:29:21;62.00;;;21.98;;
78752;SDS011;68072;51.688;7.842;2023-05-10T07:31:46;61.22;;;21.55;;
78752;SDS011;68072;51.688;7.842;2023-05-10T07:34:12;58.03;;;20.92;;
78752;SDS011;68072;51.688;7.842;2023-05-10T07:36:37;57.95;;;22.85;;
78752;SDS011;68072;51.688;7.842;2023-05-10T07:39:03;49.50;;;19.67;;
78752;SDS011;68072;51.688;7.842;2023-05-10T07:41:28;46.55;;;18.63;;
78752;SDS011;68072;51.688;7.842;2023-05-10T07:43:54;47.45;;;19.40;;
78752;SDS011;68072;51.688;7.842;2023-05-10T07:46:19;47.45;;;18.45;;
78752;SDS011;68072;51.688;7.842;2023-05-10T07:48:45;45.40;;;18.33;;
78752;SDS011;68072;51.688;7.842;2023-05-10T07:51:11;44.22;;;17.67;;
78752;SDS011;68072;51.688;7.842;2023-05-10T07:53:37;44.08;;;18.33;;
78752;SDS011;68072;51.688;7.842;2023-05-10T07:56:19;41.88;;;18.00;;
78752;SDS011;68072;51.688;7.842;2023-05-10T07:58:46;39.17;;;17.30;;
78752;SDS011;68072;51.688;7.842;2023-05-10T08:01:12;42.58;;;17.90;;
78752;SDS011;68072;51.688;7.842;2023-05-10T08:03:37;40.85;;;16.83;;
78752;SDS011;68072;51.688;7.842;2023-05-10T08:06:03;35.97;;;16.17;;
78752;SDS011;68072;51.688;7.842;2023-05-10T08:08:28;44.63;;;16.92;;
78752;SDS011;68072;51.688;7.842;2023-05-10T08:10:53;33.92;;;14.75;;
78752;SDS011;68072;51.688;7.842;2023-05-10T08:13:19;28.90;;;13.68;;
78752;SDS011;68072;51.688;7.842;2023-05-10T08:15:44;36.35;;;15.73;;
78752;SDS011;68072;51.688;7.842;2023-05-10T08:18:09;34.78;;;14.77;;
78752;SDS011;68072;51.688;7.842;2023-05-10T08:20:35;32.58;;;15.20;;
78752;SDS011;68072;51.688;7.842;2023-05-10T08:23:00;29.92;;;15.45;;
78752;SDS011;68072;51.688;7.842;2023-05-10T08:25:26;29.23;;;13.68;;
78752;SDS011;68072;51.688;7.842;2023-05-10T08:27:51;31.95;;;13.85;;
78752;SDS011;68072;51.688;7.842;2023-05-10T08:30:16;28.95;;;13.70;;
78752;SDS011;68072;51.688;7.842;2023-05-10T08:32:42;30.30;;;13.63;;
78752;SDS011;68072;51.688;7.842;2023-05-10T08:35:07;30.80;;;13.98;;
78752;SDS011;68072;51.688;7.842;2023-05-10T08:37:33;27.15;;;13.98;;
78752;SDS011;68072;51.688;7.842;2023-05-10T08:39:58;31.20;;;13.90;;
78752;SDS011;68072;51.688;7.842;2023-05-10T08:42:23;26.58;;;13.63;;
78752;SDS011;68072;51.688;7.842;2023-05-10T08:44:54;30.35;;;15.38;;
78752;SDS011;68072;51.688;7.842;2023-05-10T08:47:19;25.95;;;13.13;;
78752;SDS011;68072;51.688;7.842;2023-05-10T08:49:45;30.45;;;15.73;;
78752;SDS011;68072;51.688;7.842;2023-05-10T08:52:15;24.60;;;13.15;;
78752;SDS011;68072;51.688;7.842;2023-05-10T08:54:41;30.63;;;15.30;;
78752;SDS011;68072;51.688;7.842;2023-05-10T08:57:07;31.48;;;15.40;;
78752;SDS011;68072;51.688;7.842;2023-05-10T08:59:32;26.50;;;14.43;;
78752;SDS011;68072;51.688;7.842;2023-05-10T09:01:58;32.13;;;16.67;;
78752;SDS011;68072;51.688;7.842;2023-05-10T09:04:24;29.77;;;14.73;;
78752;SDS011;68072;51.688;7.842;2023-05-10T09:06:50;28.45;;;15.05;;
78752;SDS011;68072;51.688;7.842;2023-05-10T09:09:16;24.40;;;13.25;;
78752;SDS011;68072;51.688;7.842;2023-05-10T09:11:42;30.58;;;16.17;;
78752;SDS011;68072;51.688;7.842;2023-05-10T09:14:09;27.50;;;16.08;;
78752;SDS011;68072;51.688;7.842;2023-05-10T09:16:34;29.27;;;16.90;;
78752;SDS011;68072;51.688;7.842;2023-05-10T09:19:00;33.05;;;16.27;;
78752;SDS011;68072;51.688;7.842;2023-05-10T09:21:25;30.00;;;15.57;;
78752;SDS011;68072;51.688;7.842;2023-05-10T09:23:51;34.05;;;16.83;;
78752;SDS011;68072;51.688;7.842;2023-05-10T09:26:21;33.55;;;16.98;;
78752;SDS011;68072;51.688;7.842;2023-05-10T09:28:55;29.67;;;14.77;;
78752;SDS011;68072;51.688;7.842;2023-05-10T09:31:22;26.25;;;14.73;;
78752;SDS011;68072;51.688;7.842;2023-05-10T09:36:14;28.40;;;15.27;;
78752;SDS011;68072;51.688;7.842;2023-05-10T09:41:15;29.58;;;15.90;;
78752;SDS011;68072;51.688;7.842;2023-05-10T09:43:44;34.42;;;18.38;;
78752;SDS011;68072;51.688;7.842;2023-05-10T09:46:09;30.98;;;16.52;;
78752;SDS011;68072;51.688;7.842;2023-05-10T09:48:39;25.63;;;14.88;;
78752;SDS011;68072;51.688;7.842;2023-05-10T09:51:07;31.20;;;17.42;;
78752;SDS011;68072;51.688;7.842;2023-05-10T09:53:32;30.85;;;16.95;;
78752;SDS011;68072;51.688;7.842;2023-05-10T09:55:58;30.02;;;16.75;;
78752;SDS011;68072;51.688;7.842;2023-05-10T09:58:23;34.03;;;18.45;;
78752;SDS011;68072;51.688;7.842;2023-05-10T10:00:49;34.75;;;18.35;;
78752;SDS011;68072;51.688;7.842;2023-05-10T10:03:18;40.00;;;18.90;;
78752;SDS011;68072;51.688;7.842;2023-05-10T10:05:44;36.80;;;17.27;;
78752;SDS011;68072;51.688;7.842;2023-05-10T10:08:11;34.17;;;16.67;;
78752;SDS011;68072;51.688;7.842;2023-05-10T10:13:03;36.95;;;19.05;;
78752;SDS011;68072;51.688;7.842;2023-05-10T10:15:30;37.60;;;18.30;;
78752;SDS011;68072;51.688;7.842;2023-05-10T10:17:55;36.70;;;19.50;;
78752;SDS011;68072;51.688;7.842;2023-05-10T10:20:21;32.03;;;16.55;;
78752;SDS011;68072;51.688;7.842;2023-05-10T10:22:47;36.58;;;18.35;;
78752;SDS011;68072;51.688;7.842;2023-05-10T10:25:14;30.33;;;15.15;;
78752;SDS011;68072;51.688;7.842;2023-05-10T10:27:46;27.77;;;15.00;;
78752;SDS011;68072;51.688;7.842;2023-05-10T10:35:47;45.80;;;19.27;;
78752;SDS011;68072;51.688;7.842;2023-05-10T10:38:12;43.33;;;20.17;;
78752;SDS011;68072;51.688;7.842;2023-05-10T10:40:38;47.00;;;21.83;;
78752;SDS011;68072;51.688;7.842;2023-05-10T10:48:49;53.38;;;24.15;;
78752;SDS011;68072;51.688;7.842;2023-05-10T10:51:16;53.13;;;25.08;;
78752;SDS011;68072;51.688;7.842;2023-05-10T10:53:42;52.47;;;25.80;;
78752;SDS011;68072;51.688;7.842;2023-05-10T10:56:08;57.47;;;25.63;;
78752;SDS011;68072;51.688;7.842;2023-05-10T10:58:36;56.22;;;25.25;;
78752;SDS011;68072;51.688;7.842;2023-05-10T11:01:10;54.50;;;27.27;;
78752;SDS011;68072;51.688;7.842;2023-05-10T11:03:39;51.42;;;24.98;;
78752;SDS011;68072;51.688;7.842;2023-05-10T11:06:04;52.22;;;24.73;;
78752;SDS011;68072;51.688;7.842;2023-05-10T11:08:31;43.38;;;22.17;;
78752;SDS011;68072;51.688;7.842;2023-05-10T11:13:30;38.92;;;21.13;;
78752;SDS011;68072;51.688;7.842;2023-05-10T11:16:12;35.88;;;18.73;;
78752;SDS011;68072;51.688;7.842;2023-05-10T11:18:38;34.22;;;17.77;;
78752;SDS011;68072;51.688;7.842;2023-05-10T11:21:04;31.88;;;15.48;;
78752;SDS011;68072;51.688;7.842;2023-05-10T11:26:08;27.33;;;13.65;;
78752;SDS011;68072;51.688;7.842;2023-05-10T11:28:47;23.52;;;12.32;;
78752;SDS011;68072;51.688;7.842;2023-05-10T11:31:13;19.90;;;11.50;;
78752;SDS011;68072;51.688;7.842;2023-05-10T11:33:50;18.35;;;10.55;;
78752;SDS011;68072;51.688;7.842;2023-05-10T11:36:17;23.48;;;12.27;;
78752;SDS011;68072;51.688;7.842;2023-05-10T11:38:44;21.10;;;11.35;;
78752;SDS011;68072;51.688;7.842;2023-05-10T11:41:10;20.05;;;11.82;;
78752;SDS011;68072;51.688;7.842;2023-05-10T11:43:38;23.67;;;11.63;;
78752;SDS011;68072;51.688;7.842;2023-05-10T11:46:04;19.65;;;10.85;;
78752;SDS011;68072;51.688;7.842;2023-05-10T11:48:31;17.30;;;10.65;;
78752;SDS011;68072;51.688;7.842;2023-05-10T11:50:56;13.32;;;8.70;;
78752;SDS011;68072;51.688;7.842;2023-05-10T11:53:22;11.95;;;6.40;;
78752;SDS011;68072;51.688;7.842;2023-05-10T11:55:50;15.00;;;8.60;;
78752;SDS011;68072;51.688;7.842;2023-05-10T11:58:15;15.15;;;8.95;;
78752;SDS011;68072;51.688;7.842;2023-05-10T12:00:40;17.27;;;10.10;;
78752;SDS011;68072;51.688;7.842;2023-05-10T12:03:06;19.80;;;11.15;;
78752;SDS011;68072;51.688;7.842;2023-05-10T12:05:32;20.27;;;11.45;;
78752;SDS011;68072;51.688;7.842;2023-05-10T12:08:11;23.65;;;13.13;;
78752;SDS011;68072;51.688;7.842;2023-05-10T12:10:37;25.00;;;12.98;;
78752;SDS011;68072;51.688;7.842;2023-05-10T12:13:02;32.03;;;15.65;;
78752;SDS011;68072;51.688;7.842;2023-05-10T12:15:28;30.60;;;15.80;;
78752;SDS011;68072;51.688;7.842;2023-05-10T12:17:53;36.75;;;17.48;;
78752;SDS011;68072;51.688;7.842;2023-05-10T12:20:20;30.45;;;17.20;;
78752;SDS011;68072;51.688;7.842;2023-05-10T12:22:47;33.63;;;18.52;;
78752;SDS011;68072;51.688;7.842;2023-05-10T12:25:15;30.65;;;18.00;;
78752;SDS011;68072;51.688;7.842;2023-05-10T12:27:41;30.65;;;17.02;;
78752;SDS011;68072;51.688;7.842;2023-05-10T12:30:06;28.60;;;15.35;;
78752;SDS011;68072;51.688;7.842;2023-05-10T12:32:39;34.80;;;18.20;;
78752;SDS011;68072;51.688;7.842;2023-05-10T12:35:06;25.95;;;14.65;;
78752;SDS011;68072;51.688;7.842;2023-05-10T12:40:00;21.85;;;12.65;;
78752;SDS011;68072;51.688;7.842;2023-05-10T12:42:26;26.20;;;14.00;;
78752;SDS011;68072;51.688;7.842;2023-05-10T12:44:58;21.08;;;13.88;;
78752;SDS011;68072;51.688;7.842;2023-05-10T12:47:23;22.70;;;12.75;;
78752;SDS011;68072;51.688;7.842;2023-05-10T12:49:49;25.67;;;14.82;;
78752;SDS011;68072;51.688;7.842;2023-05-10T12:52:16;21.42;;;13.30;;
78752;SDS011;68072;51.688;7.842;2023-05-10T12:57:06;20.70;;;12.77;;
78752;SDS011;68072;51.688;7.842;2023-05-10T13:01:57;22.93;;;14.53;;
78752;SDS011;68072;51.688;7.842;2023-05-10T13:06:48;20.70;;;14.10;;
78752;SDS011;68072;51.688;7.842;2023-05-10T13:11:39;20.00;;;13.50;;
78752;SDS011;68072;51.688;7.842;2023-05-10T13:16:31;23.88;;;16.23;;
78752;SDS011;68072;51.688;7.842;2023-05-10T13:18:56;26.38;;;17.23;;
78752;SDS011;68072;51.688;7.842;2023-05-10T13:21:21;25.02;;;16.25;;
78752;SDS011;68072;51.688;7.842;2023-05-10T13:23:49;25.17;;;15.75;;
78752;SDS011;68072;51.688;7.842;2023-05-10T13:26:14;31.65;;;17.50;;
78752;SDS011;68072;51.688;7.842;2023-05-10T13:28:40;27.80;;;18.20;;
78752;SDS011;68072;51.688;7.842;2023-05-10T13:31:05;26.50;;;15.82;;
78752;SDS011;68072;51.688;7.842;2023-05-10T13:33:31;27.42;;;15.77;;
78752;SDS011;68072;51.688;7.842;2023-05-10T13:35:56;25.38;;;15.60;;
78752;SDS011;68072;51.688;7.842;2023-05-10T13:38:21;27.92;;;16.02;;
78752;SDS011;68072;51.688;7.842;2023-05-10T13:40:47;22.90;;;13.80;;
78752;SDS011;68072;51.688;7.842;2023-05-10T13:43:13;24.15;;;12.65;;
78752;SDS011;68072;51.688;7.842;2023-05-10T13:45:38;20.73;;;12.32;;
78752;SDS011;68072;51.688;7.842;2023-05-10T13:48:04;18.75;;;11.40;;
78752;SDS011;68072;51.688;7.842;2023-05-10T13:50:29;17.60;;;10.25;;
78752;SDS011;68072;51.688;7.842;2023-05-10T13:52:55;16.58;;;9.77;;
78752;SDS011;68072;51.688;7.842;2023-05-10T13:55:20;15.65;;;8.82;;
78752;SDS011;68072;51.688;7.842;2023-05-10T13:57:46;10.65;;;7.45;;
78752;SDS011;68072;51.688;7.842;2023-05-10T14:00:11;9.82;;;7.03;;
78752;SDS011;68072;51.688;7.842;2023-05-10T14:02:37;9.80;;;7.32;;
78752;SDS011;68072;51.688;7.842;2023-05-10T14:05:03;11.70;;;6.93;;
78752;SDS011;68072;51.688;7.842;2023-05-10T14:09:54;7.63;;;5.23;;
78752;SDS011;68072;51.688;7.842;2023-05-10T14:14:44;6.93;;;4.70;;
78752;SDS011;68072;51.688;7.842;2023-05-10T14:17:12;6.65;;;4.60;;
78752;SDS011;68072;51.688;7.842;2023-05-10T14:19:37;8.98;;;5.32;;
78752;SDS011;68072;51.688;7.842;2023-05-10T14:24:29;7.73;;;5.07;;
78752;SDS011;68072;51.688;7.842;2023-05-10T14:26:54;6.05;;;5.22;;
78752;SDS011;68072;51.688;7.842;2023-05-10T14:29:20;7.50;;;5.95;;
78752;SDS011;68072;51.688;7.842;2023-05-10T14:31:46;6.63;;;5.35;;
78752;SDS011;68072;51.688;7.842;2023-05-10T14:36:36;8.17;;;4.60;;
78752;SDS011;68072;51.688;7.842;2023-05-10T14:41:27;5.88;;;4.45;;
78752;SDS011;68072;51.688;7.842;2023-05-10T14:43:53;7.03;;;4.53;;
78752;SDS011;68072;51.688;7.842;2023-05-10T14:48:44;6.57;;;4.57;;
78752;SDS011;68072;51.688;7.842;2023-05-10T14:51:10;8.27;;;5.57;;
78752;SDS011;68072;51.688;7.842;2023-05-10T14:56:01;6.63;;;4.77;;
78752;SDS011;68072;51.688;7.842;2023-05-10T15:00:52;7.78;;;5.05;;
78752;SDS011;68072;51.688;7.842;2023-05-10T15:05:43;7.73;;;5.33;;
78752;SDS011;68072;51.688;7.842;2023-05-10T15:10:34;11.05;;;7.20;;
78752;SDS011;68072;51.688;7.842;2023-05-10T15:13:00;14.93;;;9.38;;
78752;SDS011;68072;51.688;7.842;2023-05-10T15:15:26;17.65;;;10.60;;
78752;SDS011;68072;51.688;7.842;2023-05-10T15:17:51;12.90;;;9.05;;
78752;SDS011;68072;51.688;7.842;2023-05-10T15:20:17;14.60;;;8.98;;
78752;SDS011;68072;51.688;7.842;2023-05-10T15:22:42;16.58;;;9.13;;
78752;SDS011;68072;51.688;7.842;2023-05-10T15:25:07;11.60;;;7.68;;
78752;SDS011;68072;51.688;7.842;2023-05-10T15:27:33;12.63;;;7.75;;
78752;SDS011;68072;51.688;7.842;2023-05-10T15:29:59;15.30;;;7.60;;
78752;SDS011;68072;51.688;7.842;2023-05-10T15:32:25;13.02;;;8.35;;
78752;SDS011;68072;51.688;7.842;2023-05-10T15:34:50;15.00;;;9.57;;
78752;SDS011;68072;51.688;7.842;2023-05-10T15:39:41;13.75;;;8.60;;
78752;SDS011;68072;51.688;7.842;2023-05-10T15:44:32;12.77;;;8.90;;
78752;SDS011;68072;51.688;7.842;2023-05-10T15:46:59;13.52;;;8.88;;
78752;SDS011;68072;51.688;7.842;2023-05-10T15:49:25;14.15;;;8.68;;
78752;SDS011;68072;51.688;7.842;2023-05-10T15:51:51;13.15;;;9.73;;
78752;SDS011;68072;51.688;7.842;2023-05-10T15:56:41;12.40;;;9.57;;
78752;SDS011;68072;51.688;7.842;2023-05-10T16:01:34;17.80;;;11.02;;
78752;SDS011;68072;51.688;7.842;2023-05-10T16:04:00;15.25;;;10.48;;
78752;SDS011;68072;51.688;7.842;2023-05-10T16:06:25;16.15;;;11.55;;